createdAt,value
2023-03-31T00:02:58.266Z,6.77
2023-03-31T00:15:58.101Z,6.51
2023-03-31T00:19:47.281Z,6.29
2023-03-31T00:22:58.321Z,6.53
2023-03-31T00:26:11.223Z,6.30
2023-03-31T00:29:24.449Z,6.39
2023-03-31T00:32:35.670Z,6.49
2023-03-31T00:35:39.999Z,6.44
2023-03-31T00:38:50.128Z,6.61
2023-03-31T00:42:04.014Z,6.47
2023-03-31T00:45:25.370Z,6.38
2023-03-31T00:48:31.756Z,6.07
2023-03-31T00:51:39.139Z,6.27
2023-03-31T00:54:57.102Z,6.23
2023-03-31T01:13:31.091Z,6.40
2023-03-31T01:42:03.356Z,5.43
2023-03-31T01:45:29.078Z,6.33
2023-03-31T01:49:30.127Z,6.37
2023-03-31T01:53:20.612Z,6.23
2023-03-31T01:57:24.519Z,6.30
2023-03-31T02:00:42.616Z,6.27
2023-03-31T02:03:59.270Z,5.82
2023-03-31T02:07:22.385Z,6.28
2023-03-31T02:10:36.743Z,6.24
2023-03-31T02:14:34.715Z,6.06
2023-03-31T02:17:50.632Z,6.25
2023-03-31T02:21:08.431Z,6.23
2023-03-31T02:28:29.497Z,6.06
2023-03-31T02:37:29.438Z,6.35
2023-03-31T02:40:37.553Z,6.35
2023-03-31T03:02:39.898Z,6.52
2023-03-31T03:05:46.578Z,6.53
2023-03-31T03:09:47.972Z,6.51
2023-03-31T03:12:59.268Z,5.94
2023-03-31T03:16:25.305Z,6.53
2023-03-31T03:19:29.081Z,6.54
2023-03-31T03:22:32.270Z,6.56
2023-03-31T03:25:47.130Z,6.28
2023-03-31T03:29:10.354Z,6.58
2023-03-31T03:36:40.320Z,6.71
2023-03-31T03:40:12.668Z,6.65
2023-03-31T03:43:26.741Z,6.76
2023-03-31T03:47:17.485Z,6.65
2023-03-31T03:50:31.119Z,6.60
2023-03-31T03:53:40.751Z,6.22
2023-03-31T04:46:27.243Z,6.69
2023-03-31T04:59:48.595Z,6.39
2023-03-31T05:02:53.266Z,6.84
2023-03-31T05:06:06.690Z,6.90
2023-03-31T05:17:56.946Z,7.10
2023-03-31T05:21:34.384Z,7.12
2023-03-31T05:24:39.382Z,6.64
2023-03-31T05:28:16.128Z,6.90
2023-03-31T05:35:23.955Z,7.15
2023-03-31T05:43:16.489Z,7.13
2023-03-31T05:46:49.271Z,7.09
2023-03-31T05:53:58.529Z,7.22
2023-03-31T05:57:36.317Z,7.20
2023-03-31T06:01:18.259Z,7.20
2023-03-31T06:04:28.573Z,7.23
2023-03-31T06:11:53.131Z,7.44
2023-03-31T06:15:08.488Z,7.45
2023-03-31T06:18:14.544Z,7.10
2023-03-31T06:35:28.259Z,7.90
2023-03-31T07:04:34.738Z,8.22
2023-03-31T07:46:44.772Z,8.44
2023-03-31T07:49:52.812Z,8.63
2023-03-31T07:53:08.222Z,8.74
2023-03-31T07:56:10.977Z,8.75
2023-03-31T07:59:14.003Z,8.18
2023-03-31T08:02:19.762Z,8.90
2023-03-31T08:05:22.817Z,8.93
2023-03-31T08:08:29.176Z,8.80
2023-03-31T08:11:48.798Z,8.97
2023-03-31T08:14:51.999Z,8.49
2023-03-31T08:25:10.231Z,8.95
2023-03-31T08:28:14.384Z,8.37
2023-03-31T08:31:19.389Z,8.30
2023-03-31T08:34:21.966Z,8.45
2023-03-31T08:37:24.967Z,8.62
2023-03-31T08:40:49.261Z,8.59
2023-03-31T08:43:55.520Z,7.94
2023-03-31T08:47:01.756Z,7.96
2023-03-31T08:50:25.704Z,8.55
2023-03-31T08:53:43.077Z,8.56
2023-03-31T08:56:49.845Z,8.15
2023-03-31T08:59:52.640Z,8.59
2023-03-31T09:03:07.392Z,8.56
2023-03-31T09:06:46.977Z,8.31
2023-03-31T09:10:11.962Z,8.68
2023-03-31T09:13:26.184Z,8.73
2023-03-31T09:16:49.295Z,8.91
2023-03-31T09:20:09.921Z,9.04
2023-03-31T09:23:31.851Z,9.16
2023-03-31T09:26:36.585Z,9.32
2023-03-31T09:30:01.260Z,9.27
2023-03-31T09:33:32.628Z,8.85
2023-03-31T09:36:37.796Z,9.25
2023-03-31T09:39:41.663Z,9.22
2023-03-31T09:42:46.028Z,9.07
2023-03-31T09:46:05.380Z,9.17
2023-03-31T09:49:32.543Z,9.05
2023-03-31T09:52:44.352Z,9.65
2023-03-31T09:56:08.843Z,9.98
2023-03-31T09:59:19.778Z,10.15
2023-03-31T10:02:38.692Z,10.05
2023-03-31T10:05:56.392Z,9.76
2023-03-31T10:09:05.587Z,9.76
2023-03-31T10:12:18.352Z,9.74
2023-03-31T10:15:27.858Z,9.87
2023-03-31T10:18:42.917Z,9.61
2023-03-31T10:21:56.135Z,9.66
2023-03-31T10:25:17.513Z,9.53
2023-03-31T10:28:35.320Z,9.71
2023-03-31T10:31:39.185Z,9.96
2023-03-31T10:34:43.919Z,9.90
2023-03-31T10:37:54.818Z,10.06
2023-03-31T10:40:59.947Z,9.48
2023-03-31T10:44:06.440Z,9.22
2023-03-31T10:47:15.470Z,9.76
2023-03-31T10:50:17.927Z,9.76
2023-03-31T10:53:23.682Z,9.87
2023-03-31T10:56:53.507Z,10.30
2023-03-31T11:00:13.149Z,10.21
2023-03-31T11:03:36.356Z,10.29
2023-03-31T11:07:11.475Z,10.01
2023-03-31T11:10:28.938Z,10.49
2023-03-31T11:14:08.094Z,10.61
2023-03-31T11:17:44.953Z,10.73
2023-03-31T11:20:53.501Z,10.43
2023-03-31T11:24:05.125Z,10.51
2023-03-31T11:27:17.222Z,10.74
2023-03-31T11:31:17.650Z,10.62
2023-03-31T11:38:41.719Z,10.01
2023-03-31T11:41:52.100Z,10.24
2023-03-31T11:45:16.860Z,10.20
2023-03-31T11:48:30.991Z,10.49
2023-03-31T11:52:01.808Z,10.74
2023-03-31T11:55:38.951Z,10.85
2023-03-31T11:59:01.142Z,10.40
2023-03-31T12:02:34.115Z,10.68
2023-03-31T12:05:44.991Z,10.26
2023-03-31T12:08:51.999Z,10.39
2023-03-31T12:12:09.860Z,10.17
2023-03-31T12:15:26.555Z,10.30
2023-03-31T12:18:36.635Z,10.19
2023-03-31T12:21:53.515Z,9.98
2023-03-31T12:24:57.664Z,10.03
2023-03-31T12:28:01.145Z,10.08
2023-03-31T12:31:39.323Z,9.51
2023-03-31T12:34:59.323Z,10.08
2023-03-31T12:38:41.836Z,10.12
2023-03-31T12:41:55.565Z,9.82
2023-03-31T12:45:13.273Z,9.81
2023-03-31T12:48:35.984Z,9.46
2023-03-31T12:52:32.738Z,9.81
2023-03-31T12:55:58.754Z,9.88
2023-03-31T12:59:19.461Z,9.69
2023-03-31T13:02:26.366Z,9.60
2023-03-31T13:05:40.502Z,9.85
2023-03-31T13:08:55.407Z,9.77
2023-03-31T13:11:57.751Z,9.87
2023-03-31T13:15:08.312Z,9.75
2023-03-31T13:18:20.937Z,9.54
2023-03-31T13:21:29.088Z,9.74
2023-03-31T13:25:04.939Z,9.98
2023-03-31T13:28:22.169Z,9.95
2023-03-31T13:32:03.898Z,9.59
2023-03-31T13:36:06.640Z,9.62
2023-03-31T13:39:11.205Z,9.95
2023-03-31T13:42:20.934Z,9.80
2023-03-31T13:45:47.874Z,9.73
2023-03-31T13:49:16.505Z,9.43
2023-03-31T13:52:46.901Z,9.74
2023-03-31T13:55:58.478Z,9.82
2023-03-31T13:59:43.053Z,10.13
2023-03-31T14:02:45.706Z,9.93
2023-03-31T14:06:13.170Z,9.87
2023-03-31T14:09:31.658Z,9.68
2023-03-31T14:12:36.439Z,10.00
2023-03-31T14:16:03.042Z,9.85
2023-03-31T14:19:28.039Z,10.06
2023-03-31T14:22:42.224Z,9.88
2023-03-31T14:26:00.194Z,9.70
2023-03-31T14:29:20.770Z,9.78
2023-03-31T14:32:38.581Z,9.65
2023-03-31T14:35:51.334Z,9.62
2023-03-31T14:38:53.418Z,9.45
2023-03-31T14:42:03.008Z,9.71
2023-03-31T14:45:15.775Z,9.94
2023-03-31T14:48:18.090Z,9.78
2023-03-31T14:51:31.419Z,9.92
2023-03-31T14:54:38.456Z,9.92
2023-03-31T14:57:42.012Z,9.89
2023-03-31T15:00:45.372Z,9.77
2023-03-31T15:03:48.552Z,9.56
2023-03-31T15:06:53.604Z,9.87
2023-03-31T15:10:09.277Z,9.93
2023-03-31T15:13:34.131Z,9.98
2023-03-31T15:16:46.737Z,10.04
2023-03-31T15:19:54.489Z,9.93
2023-03-31T15:22:58.867Z,9.60
2023-03-31T15:26:09.954Z,9.97
2023-03-31T15:29:22.769Z,9.79
2023-03-31T15:32:35.204Z,9.49
2023-03-31T15:35:37.248Z,9.59
2023-03-31T15:38:40.394Z,9.74
2023-03-31T15:41:44.827Z,9.81
2023-03-31T15:44:54.176Z,9.53
2023-03-31T15:47:57.363Z,9.77
2023-03-31T15:51:02.473Z,9.44
2023-03-31T15:54:33.561Z,9.03
2023-03-31T15:57:37.122Z,9.68
2023-03-31T16:00:48.446Z,9.64
2023-03-31T16:03:54.978Z,9.47
2023-03-31T16:07:00.020Z,9.47
2023-03-31T16:10:33.505Z,9.46
2023-03-31T16:13:40.199Z,9.17
2023-03-31T16:16:51.090Z,9.52
2023-03-31T16:20:09.396Z,9.25
2023-03-31T16:23:16.938Z,9.56
2023-03-31T16:26:28.328Z,9.20
2023-03-31T16:29:30.430Z,9.42
2023-03-31T16:32:33.007Z,9.20
2023-03-31T16:35:43.870Z,9.28
2023-03-31T16:38:47.577Z,9.16
2023-03-31T16:41:53.079Z,9.04
2023-03-31T16:48:20.710Z,8.80
2023-03-31T16:51:23.456Z,9.09
2023-03-31T16:54:27.114Z,9.15
2023-03-31T16:57:29.506Z,9.13
2023-03-31T17:00:36.817Z,9.07
2023-03-31T17:03:42.473Z,8.86
2023-03-31T17:06:45.516Z,8.57
2023-03-31T17:09:48.627Z,8.77
2023-03-31T17:12:51.738Z,8.36
2023-03-31T17:16:01.523Z,8.68
2023-03-31T17:19:16.365Z,9.03
2023-03-31T17:22:18.814Z,8.61
2023-03-31T17:25:22.535Z,9.06
2023-03-31T17:28:27.307Z,8.93
2023-03-31T17:31:31.255Z,8.92
2023-03-31T17:34:34.706Z,8.78
2023-03-31T17:37:41.018Z,8.96
2023-03-31T17:40:43.978Z,8.53
2023-03-31T17:43:49.487Z,8.77
2023-03-31T17:46:52.097Z,9.05
2023-03-31T17:49:55.409Z,9.04
2023-03-31T17:53:01.511Z,8.92
2023-03-31T17:56:05.227Z,8.72
2023-03-31T17:59:07.658Z,8.71
2023-03-31T18:02:13.338Z,8.63
2023-03-31T18:05:18.162Z,8.60
2023-03-31T18:08:22.881Z,8.63
2023-03-31T18:11:26.843Z,8.48
2023-03-31T18:14:28.904Z,9.00
2023-03-31T18:17:31.456Z,8.85
2023-03-31T18:20:36.959Z,8.43
2023-03-31T18:23:40.495Z,8.75
2023-03-31T18:26:43.502Z,9.00
2023-03-31T18:29:46.326Z,8.98
2023-03-31T18:32:49.294Z,8.42
2023-03-31T18:35:54.312Z,8.68
2023-03-31T18:38:57.250Z,8.50
2023-03-31T18:41:59.703Z,8.51
2023-03-31T18:45:03.194Z,8.40
2023-03-31T18:48:06.945Z,8.12
2023-03-31T18:51:11.757Z,8.31
2023-03-31T18:54:14.651Z,8.69
2023-03-31T18:57:24.225Z,8.73
2023-03-31T19:00:31.294Z,8.31
2023-03-31T19:03:38.451Z,8.56
2023-03-31T19:06:44.744Z,8.38
2023-03-31T19:28:27.519Z,8.90
2023-03-31T19:32:02.456Z,9.31
2023-03-31T19:40:05.872Z,8.86
2023-03-31T19:43:19.386Z,8.72
2023-03-31T19:46:21.563Z,8.87
2023-03-31T19:54:36.861Z,8.64
2023-03-31T19:57:38.756Z,8.93
2023-03-31T20:00:43.453Z,8.95
2023-03-31T20:03:47.292Z,8.45
2023-03-31T20:06:50.099Z,8.72
2023-03-31T20:09:53.137Z,8.91
2023-03-31T20:14:03.714Z,9.02
2023-03-31T20:25:31.945Z,8.72
2023-03-31T20:36:16.477Z,8.73
2023-03-31T20:39:22.470Z,9.08
2023-03-31T20:42:38.265Z,8.69
2023-03-31T20:57:21.762Z,9.40
2023-03-31T21:00:46.106Z,8.85
2023-03-31T21:04:03.750Z,9.10
2023-03-31T21:07:23.491Z,8.93
2023-03-31T21:11:05.197Z,9.25
2023-03-31T21:14:34.001Z,9.58
2023-03-31T21:17:50.857Z,9.52
2023-03-31T21:20:56.637Z,8.82
2023-03-31T21:27:24.197Z,9.38
2023-03-31T21:30:30.388Z,9.15
2023-03-31T21:33:34.216Z,9.60
2023-03-31T21:36:41.673Z,9.27
2023-03-31T21:39:46.944Z,9.24
2023-03-31T21:46:19.663Z,9.06
2023-03-31T21:49:41.534Z,8.75
2023-03-31T21:52:44.613Z,8.84
2023-03-31T21:55:48.758Z,8.82
2023-03-31T21:58:53.505Z,8.76
2023-03-31T22:02:11.898Z,8.49
2023-03-31T22:05:19.260Z,8.76
2023-03-31T22:08:24.425Z,8.66
2023-03-31T22:11:37.450Z,8.61
2023-03-31T22:14:46.229Z,8.91
2023-03-31T22:17:51.214Z,8.54
2023-03-31T22:21:07.415Z,8.52
2023-03-31T22:24:24.636Z,8.48
2023-03-31T22:27:39.272Z,8.97
2023-03-31T22:30:43.109Z,8.38
2023-03-31T22:33:46.405Z,8.51
2023-03-31T22:36:49.422Z,8.63
2023-03-31T22:39:51.740Z,8.73
2023-03-31T22:42:55.316Z,8.83
2023-03-31T22:45:57.657Z,9.03
2023-03-31T22:49:01.230Z,8.86
2023-03-31T22:52:03.742Z,8.90
2023-03-31T22:55:06.292Z,8.71
2023-03-31T22:58:13.758Z,8.99
2023-03-31T23:01:21.520Z,9.10
2023-03-31T23:04:27.673Z,9.11
2023-03-31T23:07:31.031Z,9.07
2023-03-31T23:10:36.349Z,9.03
2023-03-31T23:13:39.841Z,8.73
2023-03-31T23:16:42.505Z,8.91
2023-03-31T23:19:49.420Z,8.96
2023-03-31T23:22:57.439Z,8.85
2023-03-31T23:26:17.491Z,9.02
2023-03-31T23:29:20.697Z,8.79
2023-03-31T23:32:30.290Z,9.04
2023-03-31T23:35:33.200Z,9.15
2023-03-31T23:38:38.939Z,9.17
2023-03-31T23:41:43.865Z,9.25
2023-03-31T23:44:46.701Z,9.20
2023-03-31T23:47:49.612Z,9.18
2023-03-31T23:50:52.782Z,9.04
2023-03-31T23:53:57.466Z,9.16
2023-03-31T23:56:59.983Z,8.76
